sensor_id;sensor_type;location;lat;lon;timestamp;pressure;altitude;pressure_sealevel;temperature;humidity
11099;BME280;12223;42.650;23.364;2022-08-21T00:02:03;93876.00;;;18.51;100.00
11099;BME280;12223;42.650;23.364;2022-08-21T00:04:31;93873.41;;;18.46;100.00
11099;BME280;12223;42.650;23.364;2022-08-21T00:06:58;93876.13;;;18.41;100.00
11099;BME280;12223;42.650;23.364;2022-08-21T00:09:25;93863.44;;;18.33;100.00
11099;BME280;12223;42.650;23.364;2022-08-21T00:11:51;93854.75;;;18.41;100.00
11099;BME280;12223;42.650;23.364;2022-08-21T00:14:18;93859.38;;;18.54;100.00
11099;BME280;12223;42.650;23.364;2022-08-21T00:16:46;93873.00;;;18.58;100.00
11099;BME280;12223;42.650;23.364;2022-08-21T00:19:13;93886.56;;;18.80;100.00
11099;BME280;12223;42.650;23.364;2022-08-21T00:21:40;93922.34;;;18.84;100.00
11099;BME280;12223;42.650;23.364;2022-08-21T00:24:07;93935.41;;;18.85;100.00
11099;BME280;12223;42.650;23.364;2022-08-21T00:26:34;93896.28;;;18.57;100.00
11099;BME280;12223;42.650;23.364;2022-08-21T00:29:01;93894.28;;;18.81;100.00
11099;BME280;12223;42.650;23.364;2022-08-21T00:31:27;93908.28;;;18.92;100.00
11099;BME280;12223;42.650;23.364;2022-08-21T00:33:56;93925.56;;;19.00;100.00
11099;BME280;12223;42.650;23.364;2022-08-21T00:36:22;93912.41;;;19.03;100.00
11099;BME280;12223;42.650;23.364;2022-08-21T00:38:49;93928.97;;;19.05;100.00
11099;BME280;12223;42.650;23.364;2022-08-21T00:41:16;93948.41;;;19.11;100.00
11099;BME280;12223;42.650;23.364;2022-08-21T00:43:43;93940.09;;;19.12;100.00
11099;BME280;12223;42.650;23.364;2022-08-21T00:46:10;93951.00;;;19.16;100.00
11099;BME280;12223;42.650;23.364;2022-08-21T00:48:37;93945.16;;;19.14;100.00
11099;BME280;12223;42.650;23.364;2022-08-21T00:51:08;93949.91;;;19.17;100.00
11099;BME280;12223;42.650;23.364;2022-08-21T00:53:36;93962.94;;;19.23;100.00
11099;BME280;12223;42.650;23.364;2022-08-21T00:56:05;93957.22;;;19.11;100.00
11099;BME280;12223;42.650;23.364;2022-08-21T00:58:33;93943.38;;;19.23;100.00
11099;BME280;12223;42.650;23.364;2022-08-21T01:01:04;93953.81;;;19.24;100.00
11099;BME280;12223;42.650;23.364;2022-08-21T01:03:31;93950.72;;;19.17;100.00
11099;BME280;12223;42.650;23.364;2022-08-21T01:05:59;93939.56;;;19.10;100.00
11099;BME280;12223;42.650;23.364;2022-08-21T01:08:27;93941.25;;;19.06;100.00
11099;BME280;12223;42.650;23.364;2022-08-21T01:10:56;93923.50;;;18.97;100.00
11099;BME280;12223;42.650;23.364;2022-08-21T01:13:23;93921.72;;;19.06;100.00
11099;BME280;12223;42.650;23.364;2022-08-21T01:15:53;93919.16;;;19.01;100.00
11099;BME280;12223;42.650;23.364;2022-08-21T01:18:21;93921.81;;;19.01;100.00
11099;BME280;12223;42.650;23.364;2022-08-21T01:21:01;93925.38;;;18.96;100.00
11099;BME280;12223;42.650;23.364;2022-08-21T01:23:28;93914.72;;;18.91;100.00
11099;BME280;12223;42.650;23.364;2022-08-21T01:25:55;93919.38;;;18.85;100.00
11099;BME280;12223;42.650;23.364;2022-08-21T01:28:22;93906.00;;;18.85;100.00
11099;BME280;12223;42.650;23.364;2022-08-21T01:30:51;93908.59;;;18.91;100.00
11099;BME280;12223;42.650;23.364;2022-08-21T01:33:21;93905.34;;;18.94;100.00
11099;BME280;12223;42.650;23.364;2022-08-21T01:35:48;93907.72;;;18.95;100.00
11099;BME280;12223;42.650;23.364;2022-08-21T01:38:16;93925.94;;;18.93;100.00
11099;BME280;12223;42.650;23.364;2022-08-21T01:40:43;93926.81;;;18.88;100.00
11099;BME280;12223;42.650;23.364;2022-08-21T01:43:10;93919.78;;;18.93;100.00
11099;BME280;12223;42.650;23.364;2022-08-21T01:45:37;93921.91;;;18.96;100.00
11099;BME280;12223;42.650;23.364;2022-08-21T01:48:04;93925.06;;;18.98;100.00
11099;BME280;12223;42.650;23.364;2022-08-21T01:50:31;93925.06;;;18.98;100.00
11099;BME280;12223;42.650;23.364;2022-08-21T01:52:58;93923.19;;;18.98;100.00
11099;BME280;12223;42.650;23.364;2022-08-21T01:55:26;93933.19;;;18.93;100.00
11099;BME280;12223;42.650;23.364;2022-08-21T01:57:53;93939.41;;;18.88;100.00
11099;BME280;12223;42.650;23.364;2022-08-21T02:00:21;93941.38;;;18.82;100.00
11099;BME280;12223;42.650;23.364;2022-08-21T02:02:49;93934.41;;;18.81;100.00
11099;BME280;12223;42.650;23.364;2022-08-21T02:05:16;93931.22;;;18.79;100.00
11099;BME280;12223;42.650;23.364;2022-08-21T02:07:46;93922.72;;;18.77;100.00
11099;BME280;12223;42.650;23.364;2022-08-21T02:10:19;93936.59;;;18.79;100.00
11099;BME280;12223;42.650;23.364;2022-08-21T02:12:48;93929.94;;;18.77;100.00
11099;BME280;12223;42.650;23.364;2022-08-21T02:15:15;93935.41;;;18.85;100.00
11099;BME280;12223;42.650;23.364;2022-08-21T02:17:44;93930.16;;;18.80;100.00
11099;BME280;12223;42.650;23.364;2022-08-21T02:20:16;93946.56;;;18.93;100.00
11099;BME280;12223;42.650;23.364;2022-08-21T02:22:43;93953.41;;;18.99;100.00
11099;BME280;12223;42.650;23.364;2022-08-21T02:25:10;93951.91;;;18.93;100.00
11099;BME280;12223;42.650;23.364;2022-08-21T02:27:38;93949.22;;;18.93;100.00
11099;BME280;12223;42.650;23.364;2022-08-21T02:30:09;93979.00;;;19.05;100.00
11099;BME280;12223;42.650;23.364;2022-08-21T02:32:36;93977.72;;;19.02;100.00
11099;BME280;12223;42.650;23.364;2022-08-21T02:35:04;93976.41;;;19.00;100.00
11099;BME280;12223;42.650;23.364;2022-08-21T02:37:31;93970.50;;;19.03;100.00
11099;BME280;12223;42.650;23.364;2022-08-21T02:39:58;93975.78;;;19.08;100.00
11099;BME280;12223;42.650;23.364;2022-08-21T02:42:25;93982.72;;;19.09;100.00
11099;BME280;12223;42.650;23.364;2022-08-21T02:44:52;93972.16;;;18.99;100.00
11099;BME280;12223;42.650;23.364;2022-08-21T02:47:20;93970.56;;;18.98;100.00
11099;BME280;12223;42.650;23.364;2022-08-21T02:49:47;93965.44;;;19.01;100.00
11099;BME280;12223;42.650;23.364;2022-08-21T02:52:14;93976.63;;;19.03;100.00
11099;BME280;12223;42.650;23.364;2022-08-21T02:54:40;93980.47;;;18.97;100.00
11099;BME280;12223;42.650;23.364;2022-08-21T02:57:07;93982.66;;;18.95;100.00
11099;BME280;12223;42.650;23.364;2022-08-21T02:59:34;93984.81;;;18.93;100.00
11099;BME280;12223;42.650;23.364;2022-08-21T03:02:01;93985.59;;;18.94;100.00
11099;BME280;12223;42.650;23.364;2022-08-21T03:04:29;93986.34;;;18.80;100.00
11099;BME280;12223;42.650;23.364;2022-08-21T03:06:57;93987.47;;;18.74;100.00
11099;BME280;12223;42.650;23.364;2022-08-21T03:09:24;93967.97;;;18.74;100.00
11099;BME280;12223;42.650;23.364;2022-08-21T03:11:51;93967.41;;;18.77;100.00
11099;BME280;12223;42.650;23.364;2022-08-21T03:14:19;93954.81;;;18.77;100.00
11099;BME280;12223;42.650;23.364;2022-08-21T03:16:46;93945.31;;;18.85;100.00
11099;BME280;12223;42.650;23.364;2022-08-21T03:19:12;93954.94;;;18.86;100.00
11099;BME280;12223;42.650;23.364;2022-08-21T03:21:41;93986.59;;;18.98;100.00
11099;BME280;12223;42.650;23.364;2022-08-21T03:24:07;93977.50;;;18.80;100.00
11099;BME280;12223;42.650;23.364;2022-08-21T03:26:34;93966.53;;;18.81;100.00
11099;BME280;12223;42.650;23.364;2022-08-21T03:29:01;93995.78;;;18.92;100.00
11099;BME280;12223;42.650;23.364;2022-08-21T03:31:28;94001.50;;;19.04;100.00
11099;BME280;12223;42.650;23.364;2022-08-21T03:33:57;94007.97;;;19.03;100.00
11099;BME280;12223;42.650;23.364;2022-08-21T03:36:24;94002.19;;;18.96;100.00
11099;BME280;12223;42.650;23.364;2022-08-21T03:38:52;93996.75;;;19.01;100.00
11099;BME280;12223;42.650;23.364;2022-08-21T03:41:19;94000.84;;;19.12;100.00
11099;BME280;12223;42.650;23.364;2022-08-21T03:43:46;94024.81;;;19.22;100.00
11099;BME280;12223;42.650;23.364;2022-08-21T03:46:13;94035.88;;;19.15;100.00
11099;BME280;12223;42.650;23.364;2022-08-21T03:48:40;94041.34;;;18.86;100.00
11099;BME280;12223;42.650;23.364;2022-08-21T03:51:07;94020.56;;;18.60;100.00
11099;BME280;12223;42.650;23.364;2022-08-21T03:53:34;93999.13;;;18.41;100.00
11099;BME280;12223;42.650;23.364;2022-08-21T03:56:03;93971.06;;;18.20;100.00
11099;BME280;12223;42.650;23.364;2022-08-21T03:58:30;93946.63;;;18.07;100.00
11099;BME280;12223;42.650;23.364;2022-08-21T04:00:59;93926.88;;;18.03;100.00
11099;BME280;12223;42.650;23.364;2022-08-21T04:03:27;93924.09;;;18.14;100.00
11099;BME280;12223;42.650;23.364;2022-08-21T04:05:54;93922.22;;;18.14;100.00
11099;BME280;12223;42.650;23.364;2022-08-21T04:08:21;93913.88;;;18.21;100.00
11099;BME280;12223;42.650;23.364;2022-08-21T04:10:50;93900.34;;;18.12;100.00
11099;BME280;12223;42.650;23.364;2022-08-21T04:13:20;93901.19;;;18.07;100.00
11099;BME280;12223;42.650;23.364;2022-08-21T04:15:47;93889.28;;;18.19;100.00
11099;BME280;12223;42.650;23.364;2022-08-21T04:18:14;93902.50;;;18.29;100.00
11099;BME280;12223;42.650;23.364;2022-08-21T04:20:42;93903.59;;;18.28;100.00
11099;BME280;12223;42.650;23.364;2022-08-21T04:23:09;93913.13;;;18.34;100.00
11099;BME280;12223;42.650;23.364;2022-08-21T04:25:36;93922.88;;;18.25;100.00
11099;BME280;12223;42.650;23.364;2022-08-21T04:28:04;93922.28;;;18.28;100.00
11099;BME280;12223;42.650;23.364;2022-08-21T04:30:32;93953.66;;;18.41;100.00
11099;BME280;12223;42.650;23.364;2022-08-21T04:32:59;93960.78;;;18.51;100.00
11099;BME280;12223;42.650;23.364;2022-08-21T04:35:27;93977.56;;;18.56;100.00
11099;BME280;12223;42.650;23.364;2022-08-21T04:37:54;93986.59;;;18.60;100.00
11099;BME280;12223;42.650;23.364;2022-08-21T04:40:22;93984.97;;;18.64;100.00
11099;BME280;12223;42.650;23.364;2022-08-21T04:42:50;93981.78;;;18.62;100.00
11099;BME280;12223;42.650;23.364;2022-08-21T04:45:20;93995.22;;;18.76;100.00
11099;BME280;12223;42.650;23.364;2022-08-21T04:47:50;93996.31;;;18.75;100.00
11099;BME280;12223;42.650;23.364;2022-08-21T04:50:17;94000.34;;;18.91;100.00
11099;BME280;12223;42.650;23.364;2022-08-21T04:52:44;94021.63;;;19.20;100.00
11099;BME280;12223;42.650;23.364;2022-08-21T04:55:12;94064.53;;;19.85;100.00
11099;BME280;12223;42.650;23.364;2022-08-21T04:57:40;94119.78;;;20.13;100.00
11099;BME280;12223;42.650;23.364;2022-08-21T05:00:08;94125.81;;;20.05;100.00
11099;BME280;12223;42.650;23.364;2022-08-21T05:02:36;94133.78;;;20.42;100.00
11099;BME280;12223;42.650;23.364;2022-08-21T05:05:06;94172.91;;;21.31;100.00
11099;BME280;12223;42.650;23.364;2022-08-21T05:07:33;94186.88;;;22.04;100.00
11099;BME280;12223;42.650;23.364;2022-08-21T05:10:00;94190.03;;;22.73;100.00
11099;BME280;12223;42.650;23.364;2022-08-21T05:12:28;94199.13;;;23.91;100.00
11099;BME280;12223;42.650;23.364;2022-08-21T05:14:54;94198.59;;;24.92;100.00
11099;BME280;12223;42.650;23.364;2022-08-21T05:17:21;94205.88;;;26.59;98.99
11099;BME280;12223;42.650;23.364;2022-08-21T05:19:48;94195.88;;;28.70;75.43
11099;BME280;12223;42.650;23.364;2022-08-21T05:22:20;94202.75;;;30.40;60.33
11099;BME280;12223;42.650;23.364;2022-08-21T05:24:47;94201.09;;;30.74;54.16
11099;BME280;12223;42.650;23.364;2022-08-21T05:27:14;94214.38;;;29.24;58.54
11099;BME280;12223;42.650;23.364;2022-08-21T05:29:40;94219.44;;;28.66;63.91
11099;BME280;12223;42.650;23.364;2022-08-21T05:32:08;94211.25;;;27.86;69.85
11099;BME280;12223;42.650;23.364;2022-08-21T05:34:36;94207.03;;;27.15;70.35
11099;BME280;12223;42.650;23.364;2022-08-21T05:37:03;94209.94;;;26.65;77.83
11099;BME280;12223;42.650;23.364;2022-08-21T05:39:32;94205.69;;;26.76;82.39
11099;BME280;12223;42.650;23.364;2022-08-21T05:41:59;94201.66;;;27.64;76.86
11099;BME280;12223;42.650;23.364;2022-08-21T05:44:25;94200.59;;;29.16;67.91
11099;BME280;12223;42.650;23.364;2022-08-21T05:46:52;94194.91;;;29.69;57.74
11099;BME280;12223;42.650;23.364;2022-08-21T05:49:19;94187.81;;;29.33;58.60
11099;BME280;12223;42.650;23.364;2022-08-21T05:51:46;94193.25;;;29.33;61.23
11099;BME280;12223;42.650;23.364;2022-08-21T05:54:12;94191.69;;;29.63;60.94
11099;BME280;12223;42.650;23.364;2022-08-21T05:56:40;94189.91;;;29.24;60.96
11099;BME280;12223;42.650;23.364;2022-08-21T05:59:10;94184.16;;;28.54;66.08
11099;BME280;12223;42.650;23.364;2022-08-21T06:01:38;94196.34;;;27.43;73.73
11099;BME280;12223;42.650;23.364;2022-08-21T06:04:05;94185.13;;;26.75;80.40
11099;BME280;12223;42.650;23.364;2022-08-21T06:06:34;94201.34;;;26.10;88.43
11099;BME280;12223;42.650;23.364;2022-08-21T06:09:00;94199.25;;;25.65;97.08
11099;BME280;12223;42.650;23.364;2022-08-21T06:11:27;94197.56;;;25.43;100.00
11099;BME280;12223;42.650;23.364;2022-08-21T06:13:56;94198.53;;;25.47;99.75
11099;BME280;12223;42.650;23.364;2022-08-21T06:16:25;94194.66;;;26.07;97.97
11099;BME280;12223;42.650;23.364;2022-08-21T06:18:53;94187.13;;;26.13;93.10
11099;BME280;12223;42.650;23.364;2022-08-21T06:21:20;94184.25;;;25.97;95.04
11099;BME280;12223;42.650;23.364;2022-08-21T06:23:47;94199.09;;;25.23;99.29
11099;BME280;12223;42.650;23.364;2022-08-21T06:26:14;94193.09;;;24.11;100.00
11099;BME280;12223;42.650;23.364;2022-08-21T06:28:42;94192.34;;;24.28;100.00
11099;BME280;12223;42.650;23.364;2022-08-21T06:31:15;94189.72;;;24.74;100.00
11099;BME280;12223;42.650;23.364;2022-08-21T06:33:43;94189.84;;;24.87;100.00
11099;BME280;12223;42.650;23.364;2022-08-21T06:36:09;94193.41;;;24.10;100.00
11099;BME280;12223;42.650;23.364;2022-08-21T06:38:36;94201.69;;;24.04;100.00
11099;BME280;12223;42.650;23.364;2022-08-21T06:41:03;94202.09;;;23.15;100.00
11099;BME280;12223;42.650;23.364;2022-08-21T06:43:30;94199.47;;;22.62;100.00
11099;BME280;12223;42.650;23.364;2022-08-21T06:45:57;94200.00;;;23.04;100.00
11099;BME280;12223;42.650;23.364;2022-08-21T06:48:25;94207.69;;;23.76;100.00
11099;BME280;12223;42.650;23.364;2022-08-21T06:50:53;94200.59;;;24.23;100.00
11099;BME280;12223;42.650;23.364;2022-08-21T06:56:43;94191.59;;;24.82;100.00
11099;BME280;12223;42.650;23.364;2022-08-21T06:59:09;94211.50;;;24.78;100.00
11099;BME280;12223;42.650;23.364;2022-08-21T07:01:36;94217.38;;;23.85;100.00
11099;BME280;12223;42.650;23.364;2022-08-21T07:04:04;94208.69;;;24.23;100.00
11099;BME280;12223;42.650;23.364;2022-08-21T07:06:31;94199.94;;;24.34;100.00
11099;BME280;12223;42.650;23.364;2022-08-21T07:08:58;94202.09;;;24.84;100.00
11099;BME280;12223;42.650;23.364;2022-08-21T07:11:26;94202.41;;;24.74;100.00
11099;BME280;12223;42.650;23.364;2022-08-21T07:13:53;94207.00;;;24.99;100.00
11099;BME280;12223;42.650;23.364;2022-08-21T07:16:21;94210.00;;;25.36;98.09
11099;BME280;12223;42.650;23.364;2022-08-21T07:18:49;94209.78;;;25.58;93.15
11099;BME280;12223;42.650;23.364;2022-08-21T07:21:17;94212.19;;;25.80;92.69
11099;BME280;12223;42.650;23.364;2022-08-21T07:23:46;94209.19;;;26.02;90.52
11099;BME280;12223;42.650;23.364;2022-08-21T07:26:14;94203.94;;;26.18;88.57
11099;BME280;12223;42.650;23.364;2022-08-21T07:28:42;94198.88;;;26.37;86.78
11099;BME280;12223;42.650;23.364;2022-08-21T07:31:10;94199.16;;;26.45;86.96
11099;BME280;12223;42.650;23.364;2022-08-21T07:33:39;94192.03;;;26.40;83.45
11099;BME280;12223;42.650;23.364;2022-08-21T07:36:07;94191.88;;;24.98;95.16
11099;BME280;12223;42.650;23.364;2022-08-21T07:38:35;94196.94;;;25.46;92.64
11099;BME280;12223;42.650;23.364;2022-08-21T07:41:04;94189.66;;;25.09;90.38
11099;BME280;12223;42.650;23.364;2022-08-21T07:43:33;94189.66;;;25.38;90.76
11099;BME280;12223;42.650;23.364;2022-08-21T07:46:00;94183.09;;;25.77;88.87
11099;BME280;12223;42.650;23.364;2022-08-21T07:48:27;94181.09;;;26.36;83.35
11099;BME280;12223;42.650;23.364;2022-08-21T07:50:53;94175.19;;;26.67;77.67
11099;BME280;12223;42.650;23.364;2022-08-21T07:53:21;94177.69;;;26.72;76.26
11099;BME280;12223;42.650;23.364;2022-08-21T07:55:49;94182.50;;;26.55;74.71
11099;BME280;12223;42.650;23.364;2022-08-21T07:58:16;94189.00;;;26.41;76.24
11099;BME280;12223;42.650;23.364;2022-08-21T08:00:42;94177.88;;;26.14;79.80
11099;BME280;12223;42.650;23.364;2022-08-21T08:03:09;94179.63;;;25.39;85.55
11099;BME280;12223;42.650;23.364;2022-08-21T08:05:36;94171.22;;;25.40;87.64
11099;BME280;12223;42.650;23.364;2022-08-21T08:08:04;94183.16;;;25.01;90.10
11099;BME280;12223;42.650;23.364;2022-08-21T08:10:31;94184.22;;;24.45;95.73
11099;BME280;12223;42.650;23.364;2022-08-21T08:13:00;94189.50;;;24.33;98.69
11099;BME280;12223;42.650;23.364;2022-08-21T08:15:28;94177.38;;;24.65;93.72
11099;BME280;12223;42.650;23.364;2022-08-21T08:17:55;94175.25;;;24.79;93.38
11099;BME280;12223;42.650;23.364;2022-08-21T08:20:23;94180.13;;;24.39;97.62
11099;BME280;12223;42.650;23.364;2022-08-21T08:22:52;94186.25;;;24.65;97.50
11099;BME280;12223;42.650;23.364;2022-08-21T08:25:20;94187.44;;;25.02;94.25
11099;BME280;12223;42.650;23.364;2022-08-21T08:27:48;94183.22;;;24.67;96.73
11099;BME280;12223;42.650;23.364;2022-08-21T08:30:18;94182.28;;;24.71;100.00
11099;BME280;12223;42.650;23.364;2022-08-21T08:32:45;94177.50;;;24.77;98.99
11099;BME280;12223;42.650;23.364;2022-08-21T08:35:13;94189.41;;;24.67;98.44
11099;BME280;12223;42.650;23.364;2022-08-21T08:37:40;94195.91;;;24.83;97.38
11099;BME280;12223;42.650;23.364;2022-08-21T08:40:12;94196.06;;;25.25;92.78
11099;BME280;12223;42.650;23.364;2022-08-21T08:42:40;94195.44;;;25.66;90.17
11099;BME280;12223;42.650;23.364;2022-08-21T08:45:10;94197.50;;;26.11;85.43
11099;BME280;12223;42.650;23.364;2022-08-21T08:47:42;94186.81;;;26.35;83.07
11099;BME280;12223;42.650;23.364;2022-08-21T08:50:17;94188.81;;;26.59;80.27
11099;BME280;12223;42.650;23.364;2022-08-21T08:52:49;94183.31;;;26.67;77.83
11099;BME280;12223;42.650;23.364;2022-08-21T08:55:21;94180.16;;;26.98;76.07
11099;BME280;12223;42.650;23.364;2022-08-21T08:57:51;94176.09;;;27.16;73.45
11099;BME280;12223;42.650;23.364;2022-08-21T09:00:20;94169.78;;;27.25;71.13
11099;BME280;12223;42.650;23.364;2022-08-21T09:02:51;94173.06;;;27.30;70.94
11099;BME280;12223;42.650;23.364;2022-08-21T09:05:22;94172.69;;;27.19;70.53
11099;BME280;12223;42.650;23.364;2022-08-21T09:08:01;94164.38;;;26.79;73.27
11099;BME280;12223;42.650;23.364;2022-08-21T09:10:41;94171.22;;;26.65;75.75
11099;BME280;12223;42.650;23.364;2022-08-21T09:13:18;94168.59;;;26.56;77.32
11099;BME280;12223;42.650;23.364;2022-08-21T09:15:53;94162.66;;;26.75;75.71
11099;BME280;12223;42.650;23.364;2022-08-21T09:18:33;94160.72;;;26.96;71.93
11099;BME280;12223;42.650;23.364;2022-08-21T09:21:20;94158.59;;;27.14;69.63
11099;BME280;12223;42.650;23.364;2022-08-21T09:23:55;94153.16;;;27.26;68.43
11099;BME280;12223;42.650;23.364;2022-08-21T09:26:30;94160.25;;;27.06;68.72
11099;BME280;12223;42.650;23.364;2022-08-21T09:28:59;94146.03;;;26.97;69.88
11099;BME280;12223;42.650;23.364;2022-08-21T09:31:30;94159.03;;;26.92;69.74
11099;BME280;12223;42.650;23.364;2022-08-21T09:34:00;94152.97;;;26.74;71.45
11099;BME280;12223;42.650;23.364;2022-08-21T09:36:33;94148.13;;;26.67;73.99
11099;BME280;12223;42.650;23.364;2022-08-21T09:39:01;94149.63;;;26.89;71.07
11099;BME280;12223;42.650;23.364;2022-08-21T09:41:30;94153.63;;;27.16;67.68
11099;BME280;12223;42.650;23.364;2022-08-21T09:43:57;94150.44;;;26.90;69.22
11099;BME280;12223;42.650;23.364;2022-08-21T09:46:25;94148.34;;;26.74;68.73
11099;BME280;12223;42.650;23.364;2022-08-21T09:48:54;94146.53;;;26.66;69.78
11099;BME280;12223;42.650;23.364;2022-08-21T09:51:24;94145.03;;;26.69;71.34
11099;BME280;12223;42.650;23.364;2022-08-21T09:53:55;94143.19;;;26.94;69.37
11099;BME280;12223;42.650;23.364;2022-08-21T09:56:28;94143.66;;;26.96;70.37
11099;BME280;12223;42.650;23.364;2022-08-21T09:59:18;94137.91;;;27.09;68.92
11099;BME280;12223;42.650;23.364;2022-08-21T10:01:48;94141.09;;;26.99;66.47
11099;BME280;12223;42.650;23.364;2022-08-21T10:04:20;94134.44;;;26.76;66.42
11099;BME280;12223;42.650;23.364;2022-08-21T10:06:49;94136.31;;;26.51;68.80
11099;BME280;12223;42.650;23.364;2022-08-21T10:09:18;94138.19;;;26.18;71.70
11099;BME280;12223;42.650;23.364;2022-08-21T10:11:50;94130.03;;;26.06;72.07
11099;BME280;12223;42.650;23.364;2022-08-21T10:14:30;94139.50;;;25.79;73.36
11099;BME280;12223;42.650;23.364;2022-08-21T10:17:04;94132.88;;;25.68;75.32
11099;BME280;12223;42.650;23.364;2022-08-21T10:19:38;94123.88;;;25.55;76.34
11099;BME280;12223;42.650;23.364;2022-08-21T10:22:21;94124.16;;;25.62;77.77
11099;BME280;12223;42.650;23.364;2022-08-21T10:25:00;94114.16;;;25.83;78.28
11099;BME280;12223;42.650;23.364;2022-08-21T10:27:35;94126.28;;;25.98;77.39
11099;BME280;12223;42.650;23.364;2022-08-21T10:30:07;94110.28;;;26.26;76.34
11099;BME280;12223;42.650;23.364;2022-08-21T10:32:59;94117.03;;;26.53;74.35
11099;BME280;12223;42.650;23.364;2022-08-21T10:35:31;94107.22;;;26.48;74.07
11099;BME280;12223;42.650;23.364;2022-08-21T10:41:07;94107.53;;;26.47;71.76
11099;BME280;12223;42.650;23.364;2022-08-21T10:43:52;94103.31;;;25.42;79.00
11099;BME280;12223;42.650;23.364;2022-08-21T10:46:34;94100.78;;;25.66;80.76
11099;BME280;12223;42.650;23.364;2022-08-21T10:49:13;94098.16;;;26.11;78.99
11099;BME280;12223;42.650;23.364;2022-08-21T10:51:50;94094.50;;;26.61;75.96
11099;BME280;12223;42.650;23.364;2022-08-21T10:54:27;94096.81;;;26.95;73.74
11099;BME280;12223;42.650;23.364;2022-08-21T10:57:02;94093.94;;;26.79;69.74
11099;BME280;12223;42.650;23.364;2022-08-21T10:59:33;94079.28;;;26.02;73.71
11099;BME280;12223;42.650;23.364;2022-08-21T11:02:11;94075.25;;;26.09;74.55
11099;BME280;12223;42.650;23.364;2022-08-21T11:04:48;94078.47;;;26.23;74.18
11099;BME280;12223;42.650;23.364;2022-08-21T11:07:20;94075.88;;;25.52;74.35
11099;BME280;12223;42.650;23.364;2022-08-21T11:09:49;94062.81;;;25.54;76.76
11099;BME280;12223;42.650;23.364;2022-08-21T11:12:23;94067.66;;;25.69;74.62
11099;BME280;12223;42.650;23.364;2022-08-21T11:14:55;94049.97;;;25.92;74.37
11099;BME280;12223;42.650;23.364;2022-08-21T11:17:30;94052.78;;;25.96;71.27
11099;BME280;12223;42.650;23.364;2022-08-21T11:20:02;94051.22;;;25.74;72.48
11099;BME280;12223;42.650;23.364;2022-08-21T11:22:33;94054.66;;;25.83;75.36
11099;BME280;12223;42.650;23.364;2022-08-21T11:25:09;94023.38;;;25.74;75.95
11099;BME280;12223;42.650;23.364;2022-08-21T11:27:43;94057.66;;;26.02;72.58
11099;BME280;12223;42.650;23.364;2022-08-21T11:30:12;94052.75;;;26.17;71.58
11099;BME280;12223;42.650;23.364;2022-08-21T11:33:02;94047.97;;;26.14;71.70
11099;BME280;12223;42.650;23.364;2022-08-21T11:35:38;94056.09;;;26.14;66.95
11099;BME280;12223;42.650;23.364;2022-08-21T11:38:16;94057.91;;;26.10;71.05
11099;BME280;12223;42.650;23.364;2022-08-21T11:40:59;94052.38;;;26.18;72.26
11099;BME280;12223;42.650;23.364;2022-08-21T11:43:36;94051.44;;;26.35;70.43
11099;BME280;12223;42.650;23.364;2022-08-21T11:46:14;94051.66;;;26.30;69.41
11099;BME280;12223;42.650;23.364;2022-08-21T11:48:51;94058.44;;;26.36;71.14
11099;BME280;12223;42.650;23.364;2022-08-21T11:51:28;94050.78;;;26.50;67.87
11099;BME280;12223;42.650;23.364;2022-08-21T11:54:04;94051.00;;;26.33;69.54
11099;BME280;12223;42.650;23.364;2022-08-21T11:56:37;94050.59;;;26.22;70.52
11099;BME280;12223;42.650;23.364;2022-08-21T11:59:10;94051.44;;;26.35;70.69
11099;BME280;12223;42.650;23.364;2022-08-21T12:01:41;94032.19;;;26.16;67.41
11099;BME280;12223;42.650;23.364;2022-08-21T12:04:18;94044.78;;;26.32;67.06
11099;BME280;12223;42.650;23.364;2022-08-21T12:06:47;94031.03;;;26.37;66.61
11099;BME280;12223;42.650;23.364;2022-08-21T12:09:31;94027.31;;;26.42;69.60
11099;BME280;12223;42.650;23.364;2022-08-21T12:12:05;94028.94;;;26.55;67.17
11099;BME280;12223;42.650;23.364;2022-08-21T12:14:41;94026.88;;;26.76;62.44
11099;BME280;12223;42.650;23.364;2022-08-21T12:17:16;94020.00;;;26.79;61.72
11099;BME280;12223;42.650;23.364;2022-08-21T12:19:44;94035.47;;;26.78;60.48
11099;BME280;12223;42.650;23.364;2022-08-21T12:22:13;94036.59;;;26.65;60.28
11099;BME280;12223;42.650;23.364;2022-08-21T12:24:42;94039.28;;;26.53;61.42
11099;BME280;12223;42.650;23.364;2022-08-21T12:27:23;94044.16;;;26.60;61.24
11099;BME280;12223;42.650;23.364;2022-08-21T12:29:55;94048.44;;;26.61;61.26
11099;BME280;12223;42.650;23.364;2022-08-21T12:32:26;94044.00;;;26.44;61.46
11099;BME280;12223;42.650;23.364;2022-08-21T12:34:55;94037.13;;;26.34;63.32
11099;BME280;12223;42.650;23.364;2022-08-21T12:37:33;94037.16;;;26.14;67.30
11099;BME280;12223;42.650;23.364;2022-08-21T12:40:04;94031.56;;;26.31;64.19
11099;BME280;12223;42.650;23.364;2022-08-21T12:42:39;94039.28;;;26.41;64.09
11099;BME280;12223;42.650;23.364;2022-08-21T12:45:17;94036.69;;;26.45;63.67
11099;BME280;12223;42.650;23.364;2022-08-21T12:47:48;94025.81;;;26.32;63.93
11099;BME280;12223;42.650;23.364;2022-08-21T12:50:20;94042.56;;;26.14;64.36
11099;BME280;12223;42.650;23.364;2022-08-21T12:52:54;94030.28;;;26.16;65.04
11099;BME280;12223;42.650;23.364;2022-08-21T12:55:27;94028.56;;;26.12;66.63
11099;BME280;12223;42.650;23.364;2022-08-21T12:57:57;94023.59;;;26.01;71.65
11099;BME280;12223;42.650;23.364;2022-08-21T13:00:25;94022.94;;;26.05;72.62
11099;BME280;12223;42.650;23.364;2022-08-21T13:02:53;94014.50;;;26.18;73.38
11099;BME280;12223;42.650;23.364;2022-08-21T13:05:28;94008.25;;;26.06;76.12